EGPM

Scatsta Airport

Shetland Islands, United Kingdom
METAR EGPM 151450Z 20017KT 9999 FEW010 15/13 Q1002 TEMPO BKN012
Observed Flight Rules
Aug-15 @ 14:50 UTC (11 minutes ago) Visual Flight Rules
Wind Visibility Clouds
200° at 17 knots 10,000+ meters
  • Few at 1,000' AGL
Temperatures Readings
Current 15°C / 59°F
Dewpoint 13°C / 55°F
Humidity 88%
Altimeter 29.59" Hg
Pressure 1002 hPa
Elevation 22
METAR EGPM 151450Z 20017KT 9999 FEW010 15/13 Q1002 TEMPO BKN012
Observed Flight Rules
Aug-15 @ 14:50 UTC
(11 minutes ago)
VFR
Wind Visibility
200° at 17 knots 10,000+ meters
Clouds
  • Few at 1,000' AGL
Temperature Dewpoint
15°C / 59°F 13°C / 55°F
Humidity Altimeter Pressure
88% 29.59" Hg 1002 hPa